createdAt,value
2016-06-15T00:00:38.393Z,14.6
2016-06-15T00:01:38.366Z,14.56
2016-06-15T00:02:38.369Z,14.62
2016-06-15T00:03:38.325Z,14.61
2016-06-15T00:04:38.703Z,14.68
2016-06-15T00:05:38.284Z,14.68
2016-06-15T00:06:38.256Z,14.71
2016-06-15T00:07:38.228Z,14.71
2016-06-15T00:08:38.215Z,14.72
2016-06-15T00:09:38.202Z,14.75
2016-06-15T00:10:38.191Z,14.86
2016-06-15T00:11:38.177Z,14.87
2016-06-15T00:12:38.134Z,14.86
2016-06-15T00:13:38.105Z,14.81
2016-06-15T00:14:38.093Z,14.83
2016-06-15T00:15:38.065Z,14.9
2016-06-15T00:16:38.053Z,14.9
2016-06-15T00:17:38.040Z,14.93
2016-06-15T00:18:38.027Z,14.99
2016-06-15T00:19:38.218Z,14.94
2016-06-15T00:20:37.971Z,15.01
2016-06-15T00:21:37.944Z,14.95
2016-06-15T00:22:37.930Z,14.94
2016-06-15T00:23:37.903Z,14.93
2016-06-15T00:24:37.889Z,14.98
2016-06-15T00:25:37.877Z,15.02
2016-06-15T00:26:37.833Z,14.95
2016-06-15T00:27:37.821Z,14.95
2016-06-15T00:28:37.792Z,14.99
2016-06-15T00:29:37.780Z,15.11
2016-06-15T00:30:37.751Z,15.11
2016-06-15T00:31:37.739Z,15.11
2016-06-15T00:32:37.711Z,15.11
2016-06-15T00:33:37.698Z,15.09
2016-06-15T00:34:37.670Z,15.17
2016-06-15T00:35:37.657Z,15.17
2016-06-15T00:36:37.630Z,15.13
2016-06-15T00:37:37.601Z,15.19
2016-06-15T00:38:37.588Z,15.2
2016-06-15T00:39:37.561Z,15.15
2016-06-15T00:40:37.564Z,15.12
2016-06-15T00:41:37.519Z,15.2
2016-06-15T00:42:37.508Z,15.19
2016-06-15T00:43:37.479Z,15.19
2016-06-15T00:44:37.451Z,15.19
2016-06-15T00:45:37.438Z,15.24
2016-06-15T00:46:37.410Z,15.19
2016-06-15T00:47:37.398Z,15.19
2016-06-15T00:48:37.369Z,15.24
2016-06-15T00:49:37.982Z,15.26
2016-06-15T00:50:37.360Z,15.23
2016-06-15T00:51:37.317Z,15.27
2016-06-15T00:52:37.288Z,15.28
2016-06-15T00:53:37.276Z,15.23
2016-06-15T00:54:37.263Z,15.21
2016-06-15T00:55:37.235Z,15.26
2016-06-15T00:56:37.207Z,15.24
2016-06-15T00:57:37.179Z,15.21
2016-06-15T00:58:37.041Z,15.24
2016-06-15T00:59:37.205Z,15.15
2016-06-15T01:00:37.229Z,15.19
2016-06-15T01:01:37.252Z,15.15
2016-06-15T01:02:37.104Z,15.19
2016-06-15T01:03:37.250Z,15.17
2016-06-15T01:04:37.235Z,15.09
2016-06-15T01:05:37.282Z,15.12
2016-06-15T01:06:37.220Z,15.19
2016-06-15T01:07:37.220Z,15.15
2016-06-15T01:08:37.057Z,15.13
2016-06-15T01:09:37.207Z,15.15
2016-06-15T01:10:37.167Z,15.13
2016-06-15T01:11:37.160Z,15.13
2016-06-15T01:12:37.136Z,15.15
2016-06-15T01:13:37.111Z,15.17
2016-06-15T01:14:37.099Z,15.17
2016-06-15T01:15:37.089Z,15.19
2016-06-15T01:16:37.062Z,15.15
2016-06-15T01:17:37.051Z,15.17
2016-06-15T01:18:37.025Z,15.11
2016-06-15T01:19:36.996Z,15.21
2016-06-15T01:20:36.844Z,15.2
2016-06-15T01:21:36.957Z,15.27
2016-06-15T01:22:36.946Z,15.28
2016-06-15T01:23:36.933Z,15.27
2016-06-15T01:24:36.889Z,15.26
2016-06-15T01:25:36.877Z,15.3
2016-06-15T01:26:36.848Z,15.24
2016-06-15T01:27:36.837Z,15.3
2016-06-15T01:28:36.808Z,15.24
2016-06-15T01:29:36.796Z,15.27
2016-06-15T01:30:36.767Z,15.27
2016-06-15T01:31:36.755Z,15.36
2016-06-15T01:32:36.726Z,15.27
2016-06-15T01:33:36.714Z,15.28
2016-06-15T01:34:36.685Z,15.35
2016-06-15T01:35:37.361Z,15.31
2016-06-15T01:36:36.644Z,15.36
2016-06-15T01:37:36.617Z,15.38
2016-06-15T01:38:36.604Z,15.28
2016-06-15T01:39:36.592Z,15.38
2016-06-15T01:40:36.563Z,15.27
2016-06-15T01:41:36.535Z,15.27
2016-06-15T01:42:36.522Z,15.31
2016-06-15T01:43:36.494Z,15.41
2016-06-15T01:44:36.483Z,15.38
2016-06-15T01:45:36.453Z,15.39
2016-06-15T01:46:36.441Z,15.33
2016-06-15T01:47:36.412Z,15.41
2016-06-15T01:48:36.385Z,15.27
2016-06-15T01:49:36.373Z,15.39
2016-06-15T01:50:36.360Z,15.35
2016-06-15T01:51:36.332Z,15.33
2016-06-15T01:52:36.319Z,15.28
2016-06-15T01:53:36.291Z,15.39
2016-06-15T01:54:36.263Z,15.31
2016-06-15T01:55:36.234Z,15.28
2016-06-15T01:56:36.222Z,15.33
2016-06-15T01:57:36.193Z,15.28
2016-06-15T01:58:36.181Z,15.36
2016-06-15T01:59:36.169Z,15.35
2016-06-15T02:00:36.157Z,15.38
2016-06-15T02:01:36.128Z,15.35
2016-06-15T02:02:36.100Z,15.31
2016-06-15T02:03:36.072Z,15.38
2016-06-15T02:04:36.075Z,15.27
2016-06-15T02:05:36.562Z,15.27
2016-06-15T02:06:36.018Z,15.28
2016-06-15T02:07:35.990Z,15.3
2016-06-15T02:08:35.977Z,15.27
2016-06-15T02:09:35.949Z,15.31
2016-06-15T02:10:35.937Z,15.3
2016-06-15T02:11:35.909Z,15.24
2016-06-15T02:12:35.881Z,15.27
2016-06-15T02:13:35.868Z,15.26
2016-06-15T02:14:35.856Z,15.26
2016-06-15T02:15:35.812Z,15.27
2016-06-15T02:16:35.799Z,15.17
2016-06-15T02:17:35.787Z,15.17
2016-06-15T02:18:35.758Z,15.12
2016-06-15T02:19:35.730Z,15.17
2016-06-15T02:20:35.733Z,15.12
2016-06-15T02:21:35.705Z,15.12
2016-06-15T02:22:35.678Z,15.09
2016-06-15T02:23:35.664Z,15.12
2016-06-15T02:24:35.652Z,15.15
2016-06-15T02:25:35.623Z,14.95
2016-06-15T02:26:35.595Z,15.08
2016-06-15T02:27:35.567Z,14.98
2016-06-15T02:28:35.555Z,14.95
2016-06-15T02:29:35.526Z,14.86
2016-06-15T02:30:35.499Z,14.91
2016-06-15T02:31:35.485Z,14.86
2016-06-15T02:32:35.458Z,14.9
2016-06-15T02:33:35.445Z,14.86
2016-06-15T02:34:35.417Z,14.9
2016-06-15T02:35:35.748Z,14.84
2016-06-15T02:36:35.392Z,14.78
2016-06-15T02:37:35.348Z,14.75
2016-06-15T02:38:35.335Z,14.81
2016-06-15T02:39:35.322Z,14.71
2016-06-15T02:40:35.294Z,14.64
2016-06-15T02:41:35.267Z,14.67
2016-06-15T02:42:35.253Z,14.67
2016-06-15T02:43:35.242Z,14.65
2016-06-15T02:44:35.213Z,14.67
2016-06-15T02:45:35.185Z,14.57
2016-06-15T02:46:35.173Z,14.57
2016-06-15T02:47:35.144Z,14.62
2016-06-15T02:48:35.116Z,14.57
2016-06-15T02:49:35.103Z,14.6
2016-06-15T02:50:34.795Z,14.56
2016-06-15T02:51:35.063Z,14.62
2016-06-15T02:52:35.035Z,14.57
2016-06-15T02:53:35.006Z,14.5
2016-06-15T02:54:34.994Z,14.6
2016-06-15T02:55:34.982Z,14.56
2016-06-15T02:56:34.954Z,14.62
2016-06-15T02:57:34.924Z,14.61
2016-06-15T02:58:34.913Z,14.74
2016-06-15T02:59:34.883Z,14.72
2016-06-15T03:00:34.856Z,14.68
2016-06-15T03:01:34.844Z,14.68
2016-06-15T03:02:34.832Z,14.74
2016-06-15T03:03:34.803Z,14.72
2016-06-15T03:04:34.774Z,14.75
2016-06-15T03:05:35.121Z,14.68
2016-06-15T03:06:34.578Z,14.78
2016-06-15T03:07:34.706Z,14.68
2016-06-15T03:08:34.694Z,14.64
2016-06-15T03:09:34.681Z,14.75
2016-06-15T03:10:34.652Z,14.69
2016-06-15T03:11:34.625Z,14.71
2016-06-15T03:12:34.612Z,14.75
2016-06-15T03:13:34.584Z,14.69
2016-06-15T03:14:34.555Z,14.64
2016-06-15T03:15:34.543Z,14.72
2016-06-15T03:16:34.515Z,14.65
2016-06-15T03:17:34.519Z,14.61
2016-06-15T03:18:34.474Z,14.61
2016-06-15T03:19:34.477Z,14.53
2016-06-15T03:20:34.448Z,14.65
2016-06-15T03:21:34.420Z,14.62
2016-06-15T03:22:34.392Z,14.54
2016-06-15T03:23:34.365Z,14.6
2016-06-15T03:24:34.351Z,14.56
2016-06-15T03:25:34.339Z,14.6
2016-06-15T03:26:34.311Z,14.53
2016-06-15T03:27:34.283Z,14.57
2016-06-15T03:28:34.270Z,14.52
2016-06-15T03:29:34.273Z,14.44
2016-06-15T03:30:34.073Z,14.43
2016-06-15T03:31:34.201Z,14.44
2016-06-15T03:32:34.173Z,14.49
2016-06-15T03:33:34.145Z,14.54
2016-06-15T03:34:34.133Z,14.49
2016-06-15T03:35:34.135Z,14.52
2016-06-15T03:36:34.092Z,14.46
2016-06-15T03:37:34.080Z,14.42
2016-06-15T03:38:34.036Z,14.39
2016-06-15T03:39:34.023Z,14.37
2016-06-15T03:40:34.010Z,14.35
2016-06-15T03:41:34.013Z,14.31
2016-06-15T03:42:33.954Z,14.37
2016-06-15T03:43:33.941Z,14.29
2016-06-15T03:44:33.913Z,14.29
2016-06-15T03:45:33.901Z,14.37
2016-06-15T03:46:33.872Z,14.31
2016-06-15T03:47:33.845Z,14.31
2016-06-15T03:48:33.691Z,14.38
2016-06-15T03:49:33.820Z,14.37
2016-06-15T03:50:33.790Z,14.29
2016-06-15T03:51:33.982Z,14.39
2016-06-15T03:52:33.750Z,14.42
2016-06-15T03:53:33.722Z,14.35
2016-06-15T03:54:33.724Z,14.42
2016-06-15T03:55:33.681Z,14.43
2016-06-15T03:56:33.684Z,14.44
2016-06-15T03:57:33.641Z,14.46
2016-06-15T03:58:33.613Z,14.46
2016-06-15T03:59:33.584Z,14.46
2016-06-15T04:00:33.415Z,14.42
2016-06-15T04:01:33.544Z,14.46
2016-06-15T04:02:33.531Z,14.44
2016-06-15T04:03:33.503Z,14.49
2016-06-15T04:04:33.490Z,14.54
2016-06-15T04:05:33.556Z,14.44
2016-06-15T04:06:33.465Z,14.38
2016-06-15T04:07:33.422Z,14.44
2016-06-15T04:08:33.393Z,14.53
2016-06-15T04:09:33.381Z,14.52
2016-06-15T04:10:33.352Z,14.47
2016-06-15T04:11:33.340Z,14.52
2016-06-15T04:12:33.312Z,14.42
2016-06-15T04:13:33.283Z,14.49
2016-06-15T04:14:33.271Z,14.53
2016-06-15T04:15:33.243Z,14.42
2016-06-15T04:16:33.230Z,14.43
2016-06-15T04:17:33.203Z,14.46
2016-06-15T04:18:33.190Z,14.42
2016-06-15T04:19:33.162Z,14.46
2016-06-15T04:20:33.462Z,14.53
2016-06-15T04:21:33.121Z,14.53
2016-06-15T04:22:33.093Z,14.6
2016-06-15T04:23:33.080Z,14.64
2016-06-15T04:24:33.053Z,14.65
2016-06-15T04:25:33.039Z,14.65
2016-06-15T04:26:33.012Z,14.71
2016-06-15T04:27:32.983Z,14.74
2016-06-15T04:28:32.955Z,14.86
2016-06-15T04:29:32.958Z,14.8
2016-06-15T04:30:32.930Z,14.87
2016-06-15T04:31:32.902Z,14.87
2016-06-15T04:32:32.874Z,14.95
2016-06-15T04:33:32.877Z,14.98
2016-06-15T04:34:32.833Z,14.98
2016-06-15T04:35:33.383Z,15.11
2016-06-15T04:36:32.886Z,15.13
2016-06-15T04:37:32.795Z,15.15
2016-06-15T04:38:32.751Z,15.19
2016-06-15T04:39:32.738Z,15.19
2016-06-15T04:40:32.711Z,15.28
2016-06-15T04:41:32.697Z,15.27
2016-06-15T04:42:32.685Z,15.3
2016-06-15T04:43:32.657Z,15.31
2016-06-15T04:44:32.628Z,15.24
2016-06-15T04:45:32.616Z,15.24
2016-06-15T04:46:32.604Z,15.39
2016-06-15T04:47:32.575Z,15.45
2016-06-15T04:48:32.548Z,15.38
2016-06-15T04:49:32.535Z,15.51
2016-06-15T04:50:32.507Z,15.57
2016-06-15T04:51:32.822Z,15.64
2016-06-15T04:52:32.481Z,15.68
2016-06-15T04:53:32.453Z,15.72
2016-06-15T04:54:32.425Z,15.92
2016-06-15T04:55:32.428Z,15.86
2016-06-15T04:56:32.384Z,15.93
2016-06-15T04:57:32.357Z,15.94
2016-06-15T04:58:32.343Z,16.03
2016-06-15T04:59:32.316Z,16.01
2016-06-15T05:00:32.302Z,16.14
2016-06-15T05:01:32.134Z,16.09
2016-06-15T05:02:32.262Z,16.11
2016-06-15T05:03:32.234Z,16.01
2016-06-15T05:04:32.222Z,16.14
2016-06-15T05:05:32.193Z,16.16
2016-06-15T05:06:32.415Z,16.16
2016-06-15T05:07:32.168Z,16.22
2016-06-15T05:08:32.141Z,16.18
2016-06-15T05:09:32.112Z,16.14
2016-06-15T05:10:32.100Z,16.09
2016-06-15T05:11:32.071Z,16.25
2016-06-15T05:12:32.059Z,16.3
2016-06-15T05:13:32.031Z,16.3
2016-06-15T05:14:32.018Z,16.37
2016-06-15T05:15:32.006Z,16.42
2016-06-15T05:16:31.977Z,16.45
2016-06-15T05:17:31.965Z,16.53
2016-06-15T05:18:31.921Z,16.58
2016-06-15T05:19:31.909Z,16.59
2016-06-15T05:20:31.739Z,16.67
2016-06-15T05:21:31.884Z,16.81
2016-06-15T05:22:31.870Z,17.03
2016-06-15T05:23:31.843Z,17.15
2016-06-15T05:24:31.814Z,17.17
2016-06-15T05:25:31.802Z,17.22
2016-06-15T05:26:31.773Z,17.22
2016-06-15T05:27:31.761Z,17.18
2016-06-15T05:28:31.733Z,17.14
2016-06-15T05:29:31.720Z,17.15
2016-06-15T05:30:31.692Z,17.23
2016-06-15T05:31:31.680Z,17.17
2016-06-15T05:32:31.651Z,17.13
2016-06-15T05:33:31.482Z,17.29
2016-06-15T05:34:31.626Z,17.25
2016-06-15T05:35:31.599Z,17.29
2016-06-15T05:36:32.085Z,17.46
2016-06-15T05:37:31.573Z,17.53
2016-06-15T05:38:31.544Z,17.51
2016-06-15T05:39:31.516Z,17.63
2016-06-15T05:40:31.503Z,17.71
2016-06-15T05:41:31.492Z,17.82
2016-06-15T05:42:31.464Z,17.85
2016-06-15T05:43:31.450Z,17.89
2016-06-15T05:44:31.438Z,17.92
2016-06-15T05:45:31.410Z,18.13
2016-06-15T05:46:31.383Z,18.12
2016-06-15T05:47:31.369Z,18.21
2016-06-15T05:48:31.358Z,18.39
2016-06-15T05:49:31.344Z,18.42
2016-06-15T05:50:31.316Z,18.52
2016-06-15T05:51:31.397Z,18.62
2016-06-15T05:52:31.276Z,18.91
2016-06-15T05:53:31.262Z,19.17
2016-06-15T05:54:31.235Z,19.29
2016-06-15T05:55:31.221Z,19.32
2016-06-15T05:56:31.194Z,19.4
2016-06-15T05:57:31.181Z,19.43
2016-06-15T05:58:31.184Z,19.43
2016-06-15T05:59:31.000Z,19.6
2016-06-15T06:00:31.144Z,19.51
2016-06-15T06:01:31.100Z,19.57
2016-06-15T06:02:31.104Z,19.76
2016-06-15T06:03:31.074Z,19.83
2016-06-15T06:04:31.063Z,19.73
2016-06-15T06:05:31.049Z,19.58
2016-06-15T06:06:31.552Z,19.57
2016-06-15T06:07:31.009Z,19.57
2016-06-15T06:08:30.997Z,19.6
2016-06-15T06:09:30.967Z,19.53
2016-06-15T06:10:30.956Z,19.47
2016-06-15T06:11:30.943Z,19.53
2016-06-15T06:12:30.931Z,19.4
2016-06-15T06:13:30.903Z,19.32
2016-06-15T06:14:30.890Z,19.29
2016-06-15T06:15:30.878Z,19.24
2016-06-15T06:16:30.849Z,19.21
2016-06-15T06:17:30.837Z,19.2
2016-06-15T06:18:30.808Z,19.24
2016-06-15T06:19:30.796Z,19.17
2016-06-15T06:20:30.784Z,19.28
2016-06-15T06:21:30.834Z,19.2
2016-06-15T06:22:30.743Z,19.21
2016-06-15T06:23:30.730Z,19.13
2016-06-15T06:24:30.702Z,19.08
2016-06-15T06:25:30.689Z,19.05
2016-06-15T06:26:30.677Z,19.17
2016-06-15T06:27:30.664Z,19.18
2016-06-15T06:28:30.636Z,19.15
2016-06-15T06:29:30.640Z,19.23
2016-06-15T06:30:30.595Z,19.28
2016-06-15T06:31:30.583Z,19.31
2016-06-15T06:32:30.554Z,19.32
2016-06-15T06:33:30.542Z,19.4
2016-06-15T06:34:30.530Z,19.53
2016-06-15T06:35:30.517Z,19.58
2016-06-15T06:36:31.223Z,19.73
2016-06-15T06:37:30.335Z,19.78
2016-06-15T06:38:30.464Z,19.91
2016-06-15T06:39:30.435Z,19.87
2016-06-15T06:40:30.438Z,19.9
2016-06-15T06:41:30.410Z,19.88
2016-06-15T06:42:30.382Z,19.91
2016-06-15T06:43:31.760Z,19.75
2016-06-15T06:44:30.997Z,19.78
2016-06-15T06:45:30.345Z,19.75
2016-06-15T06:46:30.331Z,19.88
2016-06-15T06:47:30.320Z,19.88
2016-06-15T06:48:30.291Z,19.93
2016-06-15T06:49:30.263Z,19.93
2016-06-15T06:50:30.251Z,19.98
2016-06-15T06:51:30.347Z,19.97
2016-06-15T06:52:30.225Z,20.03
2016-06-15T06:53:30.197Z,20.09
2016-06-15T06:54:30.185Z,20.02
2016-06-15T06:55:30.173Z,20.1
2016-06-15T06:56:29.987Z,20.1
2016-06-15T06:57:30.132Z,20.27
2016-06-15T06:58:30.118Z,20.25
2016-06-15T06:59:30.107Z,20.31
2016-06-15T07:00:29.922Z,20.33
2016-06-15T07:01:30.050Z,20.46
2016-06-15T07:02:30.038Z,20.43
2016-06-15T07:03:30.025Z,20.58
2016-06-15T07:04:30.012Z,20.53
2016-06-15T07:05:30.000Z,20.51
2016-06-15T07:06:30.706Z,20.43
2016-06-15T07:07:29.975Z,20.47
2016-06-15T07:08:29.946Z,20.59
2016-06-15T07:09:29.918Z,20.56
2016-06-15T07:10:29.905Z,20.71
2016-06-15T07:11:29.738Z,20.65
2016-06-15T07:12:29.880Z,20.69
2016-06-15T07:13:29.853Z,20.66
2016-06-15T07:14:29.839Z,20.77
2016-06-15T07:15:29.828Z,20.95
2016-06-15T07:16:29.815Z,20.96
2016-06-15T07:17:29.787Z,21.04
2016-06-15T07:18:29.790Z,21.02
2016-06-15T07:19:29.777Z,20.98
2016-06-15T07:20:29.733Z,20.93
2016-06-15T07:21:29.940Z,20.86
2016-06-15T07:22:29.552Z,20.96
2016-06-15T07:23:29.695Z,20.95
2016-06-15T07:24:29.683Z,20.77
2016-06-15T07:25:29.671Z,20.9
2016-06-15T07:26:29.658Z,20.91
2016-06-15T07:27:29.630Z,20.93
2016-06-15T07:28:29.618Z,20.86
2016-06-15T07:29:29.589Z,21.05
2016-06-15T07:30:29.577Z,20.99
2016-06-15T07:31:29.564Z,21.2
2016-06-15T07:32:29.583Z,21.29
2016-06-15T07:33:29.539Z,21.35
2016-06-15T07:34:29.526Z,21.46
2016-06-15T07:35:29.498Z,21.76
2016-06-15T07:36:30.001Z,21.72
2016-06-15T07:37:29.488Z,22.01
2016-06-15T07:38:29.445Z,22.29
2016-06-15T07:39:29.448Z,22.39
2016-06-15T07:40:29.436Z,22.27
2016-06-15T07:41:29.439Z,22.32
2016-06-15T07:42:29.378Z,22.27
2016-06-15T07:43:29.382Z,22.22
2016-06-15T07:44:29.370Z,22.29
2016-06-15T07:45:29.342Z,22.31
2016-06-15T07:46:29.329Z,22.37
2016-06-15T07:47:29.301Z,22.37
2016-06-15T07:48:29.304Z,22.41
2016-06-15T07:49:29.275Z,22.5
2016-06-15T07:50:29.294Z,22.52
2016-06-15T07:51:29.250Z,22.56
2016-06-15T07:52:29.285Z,22.53
2016-06-15T07:53:29.241Z,22.59
2016-06-15T07:54:29.212Z,22.53
2016-06-15T07:55:29.216Z,22.52
2016-06-15T07:56:29.188Z,22.53
2016-06-15T07:57:29.160Z,22.68
2016-06-15T07:58:29.146Z,22.67
2016-06-15T07:59:29.135Z,22.59
2016-06-15T08:00:29.122Z,22.67
2016-06-15T08:01:28.953Z,22.62
2016-06-15T08:02:29.097Z,22.75
2016-06-15T08:03:29.084Z,22.87
2016-06-15T08:04:29.056Z,22.71
2016-06-15T08:05:29.043Z,22.8
2016-06-15T08:06:29.032Z,22.86
2016-06-15T08:07:29.643Z,22.96
2016-06-15T08:08:28.991Z,23.01
2016-06-15T08:09:28.994Z,23.09
2016-06-15T08:10:28.980Z,23.12
2016-06-15T08:11:28.953Z,23.32
2016-06-15T08:12:28.939Z,23.31
2016-06-15T08:13:28.928Z,23.09
2016-06-15T08:14:28.946Z,23.01
2016-06-15T08:15:28.934Z,23.05
2016-06-15T08:16:28.875Z,23.07
2016-06-15T08:17:28.893Z,23.05
2016-06-15T08:18:28.896Z,22.94
2016-06-15T08:19:28.680Z,22.93
2016-06-15T08:20:28.824Z,22.75
2016-06-15T08:21:31.062Z,22.67
2016-06-15T08:22:30.689Z,22.62
2016-06-15T08:23:28.505Z,22.43
2016-06-15T08:24:28.774Z,22.32
2016-06-15T08:25:28.746Z,22.22
2016-06-15T08:26:28.749Z,22.2
2016-06-15T08:27:28.736Z,22.12
2016-06-15T08:28:28.724Z,21.95
2016-06-15T08:29:28.695Z,21.82
2016-06-15T08:30:28.714Z,21.75
2016-06-15T08:31:28.670Z,21.57
2016-06-15T08:32:28.643Z,21.59
2016-06-15T08:33:28.629Z,21.57
2016-06-15T08:34:28.602Z,22.34
2016-06-15T08:35:28.589Z,23.29
2016-06-15T08:36:28.452Z,24.17
2016-06-15T08:37:28.580Z,25.01
2016-06-15T08:38:28.550Z,25.54
2016-06-15T08:39:28.383Z,26.24
2016-06-15T08:40:28.526Z,26.91
2016-06-15T08:41:28.342Z,27.57
2016-06-15T08:42:28.345Z,28.11
2016-06-15T08:43:28.488Z,28.65
2016-06-15T08:44:28.476Z,29.2
2016-06-15T08:45:28.464Z,29.77
2016-06-15T08:46:28.466Z,30.05
2016-06-15T08:47:28.439Z,30.4
2016-06-15T08:48:28.441Z,30.8
2016-06-15T08:49:28.428Z,31.26
2016-06-15T08:50:28.417Z,31.65
2016-06-15T08:51:28.590Z,31.45
2016-06-15T08:52:28.454Z,31.13
2016-06-15T08:53:28.425Z,31.05
2016-06-15T08:54:28.413Z,30.4
2016-06-15T08:55:28.400Z,29.65
2016-06-15T08:56:28.231Z,29.37
2016-06-15T08:57:28.375Z,29.04
2016-06-15T08:58:28.362Z,28.65
2016-06-15T08:59:28.365Z,28.28
2016-06-15T09:00:28.368Z,27.91
2016-06-15T09:01:30.872Z,27.62
2016-06-15T09:02:28.329Z,27.28
2016-06-15T09:03:28.332Z,27.02
2016-06-15T09:04:28.319Z,26.72
2016-06-15T09:05:28.306Z,26.46
2016-06-15T09:06:28.294Z,26.02
2016-06-15T09:07:28.156Z,25.83
2016-06-15T09:08:28.285Z,25.53
2016-06-15T09:09:28.256Z,25.27
2016-06-15T09:10:28.259Z,24.87
2016-06-15T09:11:28.247Z,24.64
2016-06-15T09:12:28.234Z,24.67
2016-06-15T09:13:34.604Z,25.05
2016-06-15T09:14:28.184Z,25
2016-06-15T09:15:45.252Z,24.88
2016-06-15T09:16:28.174Z,24.97
2016-06-15T09:17:28.193Z,25.07
2016-06-15T09:18:28.150Z,25.27
2016-06-15T09:19:28.136Z,25.31
2016-06-15T09:20:28.124Z,25.27
2016-06-15T09:21:28.112Z,25.25
2016-06-15T09:22:28.348Z,25.27
2016-06-15T09:23:28.087Z,25.25
2016-06-15T09:24:28.073Z,25.53
2016-06-15T09:25:28.062Z,25.39
2016-06-15T09:26:28.032Z,25.31
2016-06-15T09:27:28.036Z,25.12
2016-06-15T09:28:28.024Z,24.87
2016-06-15T09:29:28.037Z,24.73
2016-06-15T09:30:27.993Z,24.37
2016-06-15T09:31:27.980Z,24.34
2016-06-15T09:32:27.968Z,24
2016-06-15T09:33:27.971Z,23.65
2016-06-15T09:34:27.942Z,23.47
2016-06-15T09:35:27.931Z,22.5
2016-06-15T09:36:27.902Z,22.17
2016-06-15T09:37:27.904Z,21.88
2016-06-15T09:38:27.876Z,21.76
2016-06-15T09:39:27.879Z,21.53
2016-06-15T09:40:27.852Z,21.01
2016-06-15T09:41:27.855Z,20.31
2016-06-15T09:42:27.827Z,19.43
2016-06-15T09:43:27.814Z,18.72
2016-06-15T09:44:27.786Z,18.57
2016-06-15T09:45:27.774Z,18.1
2016-06-15T09:46:27.760Z,17.82
2016-06-15T09:47:27.748Z,17.76
2016-06-15T09:48:27.579Z,17.62
2016-06-15T09:49:27.567Z,17.55
2016-06-15T09:50:27.554Z,17.62
2016-06-15T09:51:27.683Z,17.64
2016-06-15T09:52:27.951Z,17.85
2016-06-15T09:53:28.142Z,17.95
2016-06-15T09:54:27.628Z,18.03
2016-06-15T09:55:27.617Z,17.87
2016-06-15T09:56:27.588Z,17.91
2016-06-15T09:57:27.560Z,17.97
2016-06-15T09:58:27.563Z,17.87
2016-06-15T09:59:27.536Z,17.85
2016-06-15T10:00:27.522Z,17.78
2016-06-15T10:01:27.494Z,17.76
2016-06-15T10:02:27.497Z,17.73
2016-06-15T10:03:27.500Z,17.74
2016-06-15T10:04:27.459Z,17.81
2016-06-15T10:05:27.502Z,17.85
2016-06-15T10:06:27.514Z,17.63
2016-06-15T10:07:27.839Z,17.59
2016-06-15T10:08:27.569Z,17.41
2016-06-15T10:09:27.569Z,17.51
2016-06-15T10:10:27.555Z,17.36
2016-06-15T10:11:27.400Z,17.46
2016-06-15T10:12:27.402Z,17.32
2016-06-15T10:13:27.561Z,17.41
2016-06-15T10:14:27.386Z,17.26
2016-06-15T10:15:27.378Z,17.33
2016-06-15T10:16:31.808Z,17.47
2016-06-15T10:17:27.505Z,17.64
2016-06-15T10:18:27.497Z,17.73
2016-06-15T10:19:27.504Z,17.87
2016-06-15T10:20:27.462Z,17.91
2016-06-15T10:21:27.436Z,18.13
2016-06-15T10:22:27.941Z,18.18
2016-06-15T10:23:27.415Z,18.31
2016-06-15T10:24:27.403Z,18.43
2016-06-15T10:25:27.376Z,18.46
2016-06-15T10:26:27.364Z,18.52
2016-06-15T10:27:27.351Z,18.55
2016-06-15T10:28:27.323Z,18.7
2016-06-15T10:29:27.296Z,18.83
2016-06-15T10:30:27.299Z,18.91
2016-06-15T10:31:27.255Z,19.02
2016-06-15T10:32:27.244Z,19.17
2016-06-15T10:33:27.231Z,19.31
2016-06-15T10:34:27.219Z,19.48
2016-06-15T10:35:27.379Z,19.58
2016-06-15T10:36:32.600Z,19.75
2016-06-15T10:37:34.636Z,19.93
2016-06-15T10:38:48.216Z,20.31
2016-06-15T10:39:32.063Z,20.65
2016-06-15T10:40:45.395Z,20.99
2016-06-15T10:41:43.710Z,21.23
2016-06-15T10:42:47.901Z,21.39
2016-06-15T10:43:27.076Z,21.42
2016-06-15T10:44:27.047Z,21.48
2016-06-15T10:45:44.363Z,21.71
2016-06-15T10:46:38.961Z,21.75
2016-06-15T10:47:51.572Z,21.63
2016-06-15T10:48:57.637Z,21.56
2016-06-15T10:50:06.251Z,21.36
2016-06-15T10:51:18.163Z,21.32
2016-06-15T10:52:24.432Z,21.02
2016-06-15T10:53:41.247Z,20.95
2016-06-15T10:54:44.641Z,20.99
2016-06-15T10:55:53.378Z,20.9
2016-06-15T10:56:50.053Z,20.77
2016-06-15T10:57:50.040Z,20.64
2016-06-15T10:58:50.012Z,20.65
2016-06-15T10:59:50.001Z,20.47
2016-06-15T11:00:49.832Z,20.41
2016-06-15T11:01:49.960Z,20.27
2016-06-15T11:02:49.947Z,20.18
2016-06-15T11:03:49.934Z,20.03
2016-06-15T11:04:49.922Z,19.91
2016-06-15T11:05:49.753Z,19.93
2016-06-15T11:06:49.898Z,19.8
2016-06-15T11:07:49.868Z,19.78
2016-06-15T11:08:49.887Z,19.72
2016-06-15T11:09:49.844Z,19.6
2016-06-15T11:10:49.815Z,19.57
2016-06-15T11:11:49.803Z,19.55
2016-06-15T11:12:49.775Z,19.54
2016-06-15T11:13:49.762Z,19.43
2016-06-15T11:14:49.749Z,19.42
2016-06-15T11:15:49.721Z,19.32
2016-06-15T11:16:49.709Z,19.28
2016-06-15T11:17:49.712Z,19.21
2016-06-15T11:18:49.669Z,19.33
2016-06-15T11:19:49.655Z,19.32
2016-06-15T11:20:49.644Z,19.33
2016-06-15T11:21:49.615Z,19.57
2016-06-15T11:22:49.617Z,19.73
2016-06-15T11:23:49.433Z,19.91
2016-06-15T11:24:49.578Z,20.2
2016-06-15T11:25:49.548Z,20.43
2016-06-15T11:26:49.521Z,20.72
2016-06-15T11:27:49.524Z,20.64
2016-06-15T11:28:49.510Z,20.86
2016-06-15T11:29:49.483Z,21.05
2016-06-15T11:30:49.471Z,21.19
2016-06-15T11:31:49.442Z,21.42
2016-06-15T11:32:49.430Z,21.5
2016-06-15T11:33:49.245Z,21.59
2016-06-15T11:34:49.389Z,21.75
2016-06-15T11:35:49.377Z,21.76
2016-06-15T11:36:49.365Z,21.81
2016-06-15T11:37:49.195Z,21.78
2016-06-15T11:38:49.338Z,21.79
2016-06-15T11:39:49.310Z,21.82
2016-06-15T11:40:49.297Z,21.94
2016-06-15T11:41:49.286Z,22.01
2016-06-15T11:42:49.273Z,22.07
2016-06-15T11:43:49.261Z,22.28
2016-06-15T11:44:49.248Z,22.28
2016-06-15T11:45:49.079Z,22.39
2016-06-15T11:46:49.192Z,22.53
2016-06-15T11:47:49.194Z,22.62
2016-06-15T11:48:49.166Z,22.8
2016-06-15T11:49:49.155Z,22.97
2016-06-15T11:50:49.125Z,22.82
2016-06-15T11:51:49.129Z,22.83
2016-06-15T11:52:49.195Z,22.87
2016-06-15T11:53:49.088Z,22.89
2016-06-15T11:54:49.076Z,22.71
2016-06-15T11:55:49.078Z,22.39
2016-06-15T11:56:49.051Z,22.34
2016-06-15T11:57:49.054Z,22.28
2016-06-15T11:58:49.010Z,22.13
2016-06-15T11:59:48.842Z,22.01
2016-06-15T12:00:48.969Z,21.81
2016-06-15T12:01:48.973Z,21.79
2016-06-15T12:02:48.945Z,21.75
2016-06-15T12:03:48.932Z,21.64
2016-06-15T12:04:48.919Z,21.71
2016-06-15T12:05:48.906Z,21.71
2016-06-15T12:06:48.878Z,21.6
2016-06-15T12:07:48.740Z,21.6
2016-06-15T12:08:48.869Z,21.56
2016-06-15T12:09:48.825Z,21.56
2016-06-15T12:10:48.812Z,21.56
2016-06-15T12:11:48.800Z,21.57
2016-06-15T12:12:48.787Z,21.59
2016-06-15T12:13:48.774Z,21.61
2016-06-15T12:14:48.747Z,21.57
2016-06-15T12:15:48.735Z,21.32
2016-06-15T12:16:48.721Z,21.19
2016-06-15T12:17:48.708Z,20.89
2016-06-15T12:18:48.697Z,20.87
2016-06-15T12:19:48.684Z,20.65
2016-06-15T12:20:48.656Z,20.64
2016-06-15T12:21:48.628Z,20.68
2016-06-15T12:22:48.473Z,20.64
2016-06-15T12:23:48.602Z,20.47
2016-06-15T12:24:48.590Z,20.33
2016-06-15T12:25:48.561Z,20.28
2016-06-15T12:26:48.549Z,20.16
2016-06-15T12:27:48.536Z,20.25
2016-06-15T12:28:48.539Z,20.16
2016-06-15T12:29:48.512Z,20.03
2016-06-15T12:30:48.327Z,20.02
2016-06-15T12:31:48.487Z,19.9
2016-06-15T12:32:48.457Z,19.91
2016-06-15T12:33:48.429Z,19.93
2016-06-15T12:34:48.418Z,19.83
2016-06-15T12:35:48.405Z,19.69
2016-06-15T12:36:48.391Z,19.69
2016-06-15T12:37:48.364Z,19.58
2016-06-15T12:38:48.351Z,19.55
2016-06-15T12:39:48.323Z,19.57
2016-06-15T12:40:48.312Z,19.51
2016-06-15T12:41:48.298Z,19.39
2016-06-15T12:42:48.285Z,19.4
2016-06-15T12:43:48.257Z,19.36
2016-06-15T12:44:48.245Z,19.24
2016-06-15T12:45:48.233Z,19.29
2016-06-15T12:46:48.205Z,19.36
2016-06-15T12:47:48.192Z,19.33
2016-06-15T12:48:48.178Z,19.23
2016-06-15T12:49:48.010Z,19.13
2016-06-15T12:50:48.138Z,19.2
2016-06-15T12:51:48.110Z,19.17
2016-06-15T12:52:48.160Z,19.17
2016-06-15T12:53:48.085Z,19.23
2016-06-15T12:54:48.058Z,19.17
2016-06-15T12:55:48.060Z,19.28